Time;durP1;ratioP1;P1;durP2;ratioP2;P2;SDS_P1;SDS_P2;PMS_P1;PMS_P2;Temp;Humidity;BMP_temperature;BMP_pressure;BME280_temperature;BME280_humidity;BME280_pressure;Samples;Min_cycle;Max_cycle;Signal;HPM_P1;HPM_P2
2021/09/08 00:00:37;;;;;;;1003.22;912.88;;;;;;;13.34;68.11;94304.94;5092896;28;20016;-46
2021/09/08 00:03:03;;;;;;;1001.50;907.70;;;;;;;13.33;67.90;94300.66;5092441;28;20409;-46
2021/09/08 00:05:29;;;;;;;1014.92;921.67;;;;;;;13.35;68.06;94309.91;5092910;28;20031;-46
2021/09/08 00:07:54;;;;;;;996.15;902.78;;;;;;;13.26;68.36;94310.41;5092494;28;20027;-47
2021/09/08 00:10:21;;;;;;;1004.70;912.30;;;;;;;13.34;68.69;94305.66;5092434;28;20115;-47
2021/09/08 00:12:47;;;;;;;997.42;905.80;;;;;;;13.36;68.33;94308.63;5092823;28;20112;-46
2021/09/08 00:15:13;;;;;;;1002.65;909.33;;;;;;;13.38;68.40;94299.78;5092384;28;20487;-46
2021/09/08 00:17:39;;;;;;;1006.17;914.65;;;;;;;13.19;68.66;94288.94;5085518;28;20081;-46
2021/09/08 00:20:05;;;;;;;991.17;899.42;;;;;;;13.13;68.65;94301.44;5079869;28;20451;-49
2021/09/08 00:22:31;;;;;;;991.42;899.47;;;;;;;13.07;68.98;94298.84;5080670;28;20040;-47
2021/09/08 00:24:57;;;;;;;1047.25;944.00;;;;;;;13.05;69.24;94292.34;5078805;28;20029;-48
2021/09/08 00:27:22;;;;;;;988.13;896.90;;;;;;;13.07;68.95;94295.31;5081072;28;20031;-47
2021/09/08 00:29:48;;;;;;;1002.40;912.15;;;;;;;13.04;69.17;94301.94;5082772;28;20023;-47
2021/09/08 00:32:13;;;;;;;976.60;889.75;;;;;;;13.00;68.94;94295.97;5084253;28;20032;-48
2021/09/08 00:34:39;;;;;;;1002.03;911.42;;;;;;;12.99;69.34;94300.81;5089560;28;20035;-50
2021/09/08 00:37:04;;;;;;;1013.40;921.60;;;;;;;13.00;69.20;94293.94;5091891;28;20028;-47
2021/09/08 00:39:30;;;;;;;992.95;904.10;;;;;;;12.85;69.37;94300.13;5086599;28;20025;-47
2021/09/08 00:41:55;;;;;;;971.38;884.47;;;;;;;12.89;68.56;94294.25;5071664;28;20078;-46
2021/09/08 00:44:24;;;;;;;989.00;901.83;;;;;;;12.93;69.05;94295.38;5071467;28;20033;-46
2021/09/08 00:46:50;;;;;;;981.38;893.78;;;;;;;12.87;68.89;94286.47;5071790;28;20438;-47
2021/09/08 00:49:15;;;;;;;1010.80;920.55;;;;;;;12.84;69.05;94270.22;5071433;28;20031;-46
2021/09/08 00:51:41;;;;;;;970.80;884.58;;;;;;;12.96;68.77;94285.25;5071650;28;20486;-46
2021/09/08 00:54:15;;;;;;;973.00;889.35;;;;;;;12.92;69.38;94282.81;5071008;28;20484;-46
2021/09/08 00:56:42;;;;;;;977.05;888.88;;;;;;;12.89;69.54;94286.69;5071158;28;20123;-48
2021/09/08 00:59:08;;;;;;;988.22;903.15;;;;;;;12.93;69.28;94289.09;5071636;28;20080;-47
2021/09/08 01:01:33;;;;;;;1009.88;919.63;;;;;;;12.85;69.82;94288.31;5071268;28;20024;-47
2021/09/08 01:03:59;;;;;;;1009.47;918.08;;;;;;;12.94;69.57;94279.50;5071125;28;20031;-50
2021/09/08 01:06:24;;;;;;;992.08;905.20;;;;;;;12.97;68.95;94281.19;5073889;28;20026;-48
2021/09/08 01:08:50;;;;;;;991.33;903.75;;;;;;;13.01;68.75;94278.06;5086246;28;20027;-48
2021/09/08 01:11:16;;;;;;;1010.88;921.28;;;;;;;13.01;69.03;94280.84;5082725;28;20030;-48
2021/09/08 01:13:41;;;;;;;978.28;890.97;;;;;;;13.03;68.56;94284.56;5070977;28;20398;-48
2021/09/08 01:16:07;;;;;;;968.63;882.45;;;;;;;12.90;68.17;94284.66;5071279;28;20024;-46
2021/09/08 01:18:33;;;;;;;1024.63;932.88;;;;;;;12.97;69.18;94281.19;5070826;28;20082;-47
2021/09/08 01:20:59;;;;;;;1021.75;929.92;;;;;;;12.97;69.62;94272.88;5070831;28;20115;-46
2021/09/08 01:23:25;;;;;;;1020.33;926.92;;;;;;;13.01;69.59;94281.59;5075970;28;20398;-47
2021/09/08 01:25:50;;;;;;;1002.85;915.22;;;;;;;13.01;69.44;94278.06;5091003;28;20027;-47
2021/09/08 01:28:16;;;;;;;1011.72;919.58;;;;;;;13.02;69.38;94277.50;5077979;28;20028;-49
2021/09/08 01:30:42;;;;;;;1007.22;916.85;;;;;;;13.06;68.88;94275.16;5091173;28;20016;-49
2021/09/08 01:33:13;;;;;;;1007.10;915.65;;;;;;;13.03;69.35;94278.25;5091249;28;20108;-47
2021/09/08 01:35:38;;;;;;;974.60;886.63;;;;;;;13.04;69.11;94274.94;5090739;28;20565;-46
2021/09/08 01:38:04;;;;;;;1001.85;912.17;;;;;;;13.04;68.62;94274.94;5091166;28;20020;-48
2021/09/08 01:40:30;;;;;;;966.83;881.88;;;;;;;12.97;67.94;94267.34;5090993;28;20047;-48
2021/09/08 01:42:56;;;;;;;1008.00;915.95;;;;;;;13.09;69.41;94282.41;5090903;28;20501;-47
2021/09/08 01:45:22;;;;;;;1008.83;916.05;;;;;;;13.10;69.08;94278.34;5090653;28;20016;-47
2021/09/08 01:47:47;;;;;;;990.67;900.05;;;;;;;13.13;68.11;94282.03;5090939;28;20050;-49
2021/09/08 01:50:13;;;;;;;978.40;890.33;;;;;;;13.17;68.41;94274.88;5090552;28;20016;-48
2021/09/08 01:52:39;;;;;;;992.60;904.33;;;;;;;13.04;68.83;94277.00;5106317;28;20024;-48
2021/09/08 01:55:06;;;;;;;1008.78;921.83;;;;;;;12.87;69.03;94264.31;5070264;28;20101;-48
2021/09/08 01:57:32;;;;;;;992.97;902.40;;;;;;;12.62;69.49;94248.63;5070245;28;20090;-48
2021/09/08 01:59:58;;;;;;;1006.38;916.42;;;;;;;12.80;69.46;94262.22;5070639;28;20017;-48
2021/09/08 02:02:23;;;;;;;997.00;905.88;;;;;;;12.74;69.40;94260.88;5070372;28;20421;-52
2021/09/08 02:04:49;;;;;;;1014.15;922.20;;;;;;;12.68;69.36;94261.03;5070514;28;20422;-48
2021/09/08 02:07:14;;;;;;;1009.10;922.03;;;;;;;12.67;69.57;94261.56;5070416;28;20453;-48
2021/09/08 02:09:40;;;;;;;1017.47;928.13;;;;;;;12.37;70.19;94261.31;5070035;28;20052;-47
2021/09/08 02:12:05;;;;;;;1033.03;941.05;;;;;;;12.44;70.00;94257.88;5070209;28;20025;-47
2021/09/08 02:14:31;;;;;;;997.95;914.17;;;;;;;12.45;69.97;94257.31;5069956;28;20027;-46
2021/09/08 02:16:56;;;;;;;1005.38;915.85;;;;;;;12.56;70.02;94257.06;5072648;28;20036;-47
2021/09/08 02:19:22;;;;;;;978.60;892.83;;;;;;;12.50;69.98;94252.94;5086921;28;20405;-48
2021/09/08 02:21:48;;;;;;;999.13;913.03;;;;;;;12.49;69.80;94248.69;5070045;28;20028;-46
2021/09/08 02:24:14;;;;;;;978.85;898.25;;;;;;;12.40;70.10;94246.41;5069963;28;20031;-47
2021/09/08 02:26:39;;;;;;;970.70;891.75;;;;;;;12.28;70.44;94245.91;5070806;28;20020;-47
2021/09/08 02:29:05;;;;;;;970.08;889.00;;;;;;;12.18;70.59;94251.22;5070213;28;20016;-48
2021/09/08 02:31:32;;;;;;;1006.22;920.80;;;;;;;12.15;71.20;94248.75;5072930;28;20016;-47
2021/09/08 02:33:57;;;;;;;985.08;903.33;;;;;;;12.06;70.98;94244.44;5090024;28;20024;-49
2021/09/08 02:36:23;;;;;;;989.08;905.45;;;;;;;11.96;71.44;94245.44;5090037;28;20020;-47
2021/09/08 02:38:50;;;;;;;1016.97;930.67;;;;;;;11.94;71.34;94246.00;5090375;28;20036;-47
2021/09/08 02:41:15;;;;;;;1023.38;936.58;;;;;;;11.90;71.10;94242.81;5083554;28;20052;-48
2021/09/08 02:43:41;;;;;;;1010.35;926.38;;;;;;;11.83;71.41;94242.72;5069775;28;20059;-46
2021/09/08 02:46:06;;;;;;;995.35;909.63;;;;;;;11.76;72.23;94244.13;5070125;28;20063;-46
2021/09/08 02:48:33;;;;;;;1007.17;918.65;;;;;;;11.74;72.58;94241.16;5071184;28;20025;-46
2021/09/08 02:50:59;;;;;;;993.90;911.17;;;;;;;11.73;72.15;94236.19;5077918;28;20028;-46
2021/09/08 02:53:25;;;;;;;1007.25;923.63;;;;;;;11.62;72.01;94225.31;5086164;28;20027;-46
2021/09/08 02:55:50;;;;;;;1005.08;920.63;;;;;;;11.61;72.22;94229.38;5083706;28;20073;-46
2021/09/08 02:58:16;;;;;;;967.25;886.00;;;;;;;11.57;72.12;94232.47;5084153;28;20016;-46
2021/09/08 03:00:42;;;;;;;1004.47;920.10;;;;;;;11.52;71.83;94224.31;5082603;28;20047;-47
2021/09/08 03:03:07;;;;;;;973.55;895.10;;;;;;;11.44;71.44;94229.72;5083329;28;20055;-48
2021/09/08 03:05:32;;;;;;;999.92;917.88;;;;;;;11.33;71.18;94214.13;5083018;28;20021;-49
2021/09/08 03:07:58;;;;;;;961.45;884.10;;;;;;;11.40;70.90;94224.53;5081462;28;20036;-51
2021/09/08 03:10:23;;;;;;;965.70;889.72;;;;;;;11.25;70.76;94213.31;5082372;28;20028;-47
2021/09/08 03:12:49;;;;;;;970.08;894.10;;;;;;;11.31;70.54;94229.75;5082318;28;20028;-47
2021/09/08 03:15:14;;;;;;;936.85;864.35;;;;;;;11.26;70.90;94222.34;5081986;28;20405;-46
2021/09/08 03:17:40;;;;;;;967.78;892.67;;;;;;;11.24;70.94;94227.66;5083299;28;20021;-48
2021/09/08 03:20:06;;;;;;;952.00;880.80;;;;;;;11.19;71.00;94232.03;5080588;28;20460;-47
2021/09/08 03:22:31;;;;;;;961.17;885.35;;;;;;;11.20;70.93;94227.22;5081951;28;20027;-47
2021/09/08 03:24:57;;;;;;;957.50;882.28;;;;;;;11.10;70.84;94235.22;5082262;28;20035;-48
2021/09/08 03:27:22;;;;;;;963.38;889.28;;;;;;;11.07;71.24;94230.75;5081549;28;20532;-47
2021/09/08 03:29:48;;;;;;;1029.30;944.20;;;;;;;11.03;71.56;94232.34;5081119;28;20024;-45
2021/09/08 03:32:13;;;;;;;1025.80;940.92;;;;;;;11.04;71.52;94229.06;5082026;28;20488;-47
2021/09/08 03:34:39;;;;;;;1054.65;966.47;;;;;;;11.03;71.70;94232.34;5082292;28;20020;-46
2021/09/08 03:37:04;;;;;;;1059.97;969.03;;;;;;;11.00;72.23;94228.63;5080892;28;20024;-47
2021/09/08 03:39:30;;;;;;;1051.80;965.10;;;;;;;10.97;72.27;94237.25;5082479;28;20308;-47
2021/09/08 03:41:55;;;;;;;1050.40;960.17;;;;;;;10.94;72.58;94232.78;5083459;28;20021;-46
2021/09/08 03:44:20;;;;;;;1048.57;960.95;;;;;;;10.50;71.89;94168.84;5079346;28;20020;-46
2021/09/08 03:46:46;;;;;;;1060.72;972.65;;;;;;;10.76;71.40;94225.38;5078610;28;20012;-46
2021/09/08 03:49:11;;;;;;;1080.68;989.00;;;;;;;10.75;71.13;94238.44;5079562;28;20020;-47
2021/09/08 03:51:37;;;;;;;1080.93;989.53;;;;;;;10.79;71.19;94232.56;5090761;28;20073;-47
2021/09/08 03:54:02;;;;;;;1067.82;979.45;;;;;;;10.90;71.11;94233.09;5090461;28;20089;-47
2021/09/08 03:56:28;;;;;;;1019.58;934.22;;;;;;;10.90;71.11;94241.41;5090491;28;20048;-47
2021/09/08 03:58:53;;;;;;;1043.28;953.65;;;;;;;10.82;71.31;94221.22;5091029;28;20020;-46
2021/09/08 04:01:19;;;;;;;1056.95;968.88;;;;;;;10.90;72.06;94237.88;5091219;28;20027;-47
2021/09/08 04:03:48;;;;;;;1073.75;983.90;;;;;;;10.91;72.38;94244.91;5092111;28;20496;-47
2021/09/08 04:06:14;;;;;;;1019.67;936.13;;;;;;;10.97;71.59;94238.00;5092202;28;20413;-47
2021/09/08 04:08:39;;;;;;;1058.43;969.67;;;;;;;10.98;71.71;94242.25;5091608;28;20720;-46
2021/09/08 04:11:05;;;;;;;1060.80;974.13;;;;;;;10.98;70.70;94244.28;5091706;28;20024;-46
2021/09/08 04:13:30;;;;;;;1053.72;965.97;;;;;;;10.92;71.32;94243.63;5075275;28;20035;-48
2021/09/08 04:15:56;;;;;;;1058.68;972.40;;;;;;;10.90;70.92;94240.66;5071676;28;20036;-47
2021/09/08 04:18:21;;;;;;;1070.35;978.90;;;;;;;10.91;71.32;94236.63;5071686;28;20036;-45
2021/09/08 04:20:46;;;;;;;1067.40;976.88;;;;;;;10.88;71.56;94238.44;5071584;28;20481;-47
2021/09/08 04:23:12;;;;;;;1054.93;963.75;;;;;;;10.87;71.50;94236.19;5072027;28;20032;-47
2021/09/08 04:25:37;;;;;;;1042.28;956.40;;;;;;;10.91;71.67;94231.09;5091807;28;20027;-47
2021/09/08 04:28:03;;;;;;;1060.90;970.47;;;;;;;11.03;71.78;94240.63;5073948;28;20028;-47
2021/09/08 04:30:29;;;;;;;1056.22;966.30;;;;;;;11.02;71.72;94239.88;5071353;28;20547;-45
2021/09/08 04:32:54;;;;;;;1065.20;973.15;;;;;;;11.01;72.20;94245.97;5071552;28;20031;-46
2021/09/08 04:35:19;;;;;;;1053.90;965.30;;;;;;;11.10;71.72;94242.78;5071571;28;20012;-49
2021/09/08 04:37:45;;;;;;;1067.85;977.42;;;;;;;11.16;71.82;94249.66;5071583;28;20029;-46
2021/09/08 04:40:11;;;;;;;1058.55;971.08;;;;;;;11.26;71.24;94252.75;5071483;28;20021;-46
2021/09/08 04:42:36;;;;;;;1052.95;967.55;;;;;;;11.17;71.09;94253.19;5071741;28;20036;-46
2021/09/08 04:45:02;;;;;;;1056.65;964.97;;;;;;;11.12;71.86;94257.53;5071817;28;20391;-48
2021/09/08 04:47:28;;;;;;;1040.70;951.50;;;;;;;11.21;71.62;94254.34;5071857;28;20582;-48
2021/09/08 04:49:53;;;;;;;1055.25;962.92;;;;;;;11.20;71.97;94258.38;5071192;28;20477;-48
2021/09/08 04:52:18;;;;;;;1068.22;974.55;;;;;;;11.28;72.21;94248.16;5071607;28;20017;-47
2021/09/08 04:54:44;;;;;;;1061.28;965.75;;;;;;;11.38;71.92;94257.50;5088235;28;20048;-47
2021/09/08 04:57:09;;;;;;;1066.65;970.13;;;;;;;11.40;71.97;94259.72;5091806;28;20433;-47
2021/09/08 04:59:35;;;;;;;1094.30;996.65;;;;;;;11.44;72.16;94260.16;5091423;28;20019;-47
2021/09/08 05:02:00;;;;;;;1094.35;994.60;;;;;;;11.37;71.72;94258.78;5090964;28;20115;-48
2021/09/08 05:04:26;;;;;;;1087.25;987.50;;;;;;;11.49;71.46;94253.78;5090689;28;20409;-47
2021/09/08 05:06:51;;;;;;;1103.63;997.83;;;;;;;11.55;71.62;94256.41;5090607;28;20481;-48
2021/09/08 05:09:17;;;;;;;1089.88;990.25;;;;;;;11.63;71.26;94266.28;5079011;28;20024;-46
2021/09/08 05:11:42;;;;;;;1090.85;991.53;;;;;;;11.75;70.92;94267.56;5070962;28;20030;-47
2021/09/08 05:14:08;;;;;;;1080.88;985.80;;;;;;;11.75;70.63;94275.09;5071051;28;20127;-46
2021/09/08 05:16:33;;;;;;;1061.95;967.75;;;;;;;11.81;71.20;94256.34;5071162;28;20024;-46
2021/09/08 05:18:59;;;;;;;1066.60;973.88;;;;;;;11.86;71.24;94274.88;5071035;28;20529;-46
2021/09/08 05:21:24;;;;;;;1067.38;974.28;;;;;;;11.98;70.98;94265.00;5071151;28;20126;-48
2021/09/08 05:23:51;;;;;;;1100.25;997.35;;;;;;;12.06;70.77;94268.63;5071237;28;20028;-48
2021/09/08 05:26:16;;;;;;;1077.40;982.22;;;;;;;12.02;70.23;94244.03;5073418;28;20035;-48
2021/09/08 05:28:42;;;;;;;1061.88;968.50;;;;;;;12.26;69.75;94258.84;5091235;28;20107;-46
2021/09/08 05:31:07;;;;;;;1053.35;960.45;;;;;;;12.34;69.60;94262.41;5091448;28;20497;-46
2021/09/08 05:33:33;;;;;;;1042.10;951.00;;;;;;;12.45;69.32;94259.38;5091204;28;20012;-48
2021/09/08 05:35:59;;;;;;;1052.22;960.72;;;;;;;12.57;68.88;94252.25;5090978;28;20524;-46
2021/09/08 05:38:24;;;;;;;1052.75;961.35;;;;;;;12.67;69.11;94251.22;5091093;28;20027;-47
2021/09/08 05:40:50;;;;;;;1075.60;982.45;;;;;;;12.78;68.88;94250.19;5091159;28;20016;-46
2021/09/08 05:43:15;;;;;;;1057.38;967.33;;;;;;;12.87;68.47;94250.44;5090838;28;20145;-47
2021/09/08 05:45:41;;;;;;;1048.63;957.92;;;;;;;12.98;68.83;94245.88;5090712;28;20024;-46
2021/09/08 05:48:06;;;;;;;1065.28;970.80;;;;;;;13.09;68.61;94226.19;5090665;28;20097;-48
2021/09/08 05:50:32;;;;;;;1047.85;959.85;;;;;;;13.24;66.68;94234.59;5090568;28;20108;-48
2021/09/08 05:52:57;;;;;;;1054.88;965.95;;;;;;;13.32;67.10;94233.34;5090447;28;20024;-46
2021/09/08 05:55:23;;;;;;;1040.88;947.97;;;;;;;13.45;67.41;94233.22;5078471;28;20725;-47
2021/09/08 05:57:48;;;;;;;1052.05;961.10;;;;;;;13.53;67.91;94233.25;5070617;28;20528;-50
2021/09/08 06:00:14;;;;;;;1044.78;951.30;;;;;;;13.68;67.59;94236.84;5070294;28;20012;-47
2021/09/08 06:02:40;;;;;;;1028.38;943.22;;;;;;;13.66;66.85;94235.91;5070079;28;20522;-50
2021/09/08 06:05:06;;;;;;;1046.18;955.92;;;;;;;13.63;67.63;94231.44;5078853;28;20046;-48
2021/09/08 06:07:32;;;;;;;1031.32;942.13;;;;;;;13.77;66.83;94234.81;5090452;28;20028;-47
2021/09/08 06:09:57;;;;;;;1065.07;974.17;;;;;;;13.90;67.04;94234.66;5089960;28;20024;-46
2021/09/08 06:12:23;;;;;;;1033.70;945.83;;;;;;;13.90;66.55;94234.66;5089862;28;20020;-45
2021/09/08 06:14:48;;;;;;;1030.50;942.97;;;;;;;13.94;65.83;94233.00;5089984;28;20421;-47
2021/09/08 06:17:14;;;;;;;1002.30;915.42;;;;;;;14.00;66.35;94227.28;5089631;28;20043;-48
2021/09/08 06:19:40;;;;;;;1034.93;945.60;;;;;;;14.09;65.13;94227.50;5089957;28;20020;-47
2021/09/08 06:22:05;;;;;;;1020.42;928.80;;;;;;;14.24;64.60;94237.88;5089766;28;20398;-46
2021/09/08 06:24:31;;;;;;;1032.00;939.00;;;;;;;14.40;63.86;94231.06;5089946;28;20024;-47
2021/09/08 06:26:56;;;;;;;1044.05;948.78;;;;;;;14.61;64.24;94233.66;5081803;28;20493;-46
2021/09/08 06:29:22;;;;;;;1038.03;945.33;;;;;;;14.68;63.41;94230.88;5069817;28;20035;-47
2021/09/08 06:31:47;;;;;;;1036.05;941.03;;;;;;;14.75;62.29;94223.84;5070208;28;20024;-46
2021/09/08 06:34:13;;;;;;;999.42;913.58;;;;;;;14.79;59.85;94233.25;5069872;28;20082;-47
2021/09/08 06:36:38;;;;;;;997.35;911.40;;;;;;;14.76;59.96;94225.31;5069938;28;20086;-46
2021/09/08 06:39:04;;;;;;;948.67;870.20;;;;;;;14.86;61.41;94226.97;5070148;28;20028;-46
2021/09/08 06:41:29;;;;;;;950.78;870.78;;;;;;;14.72;59.95;94228.47;5070217;28;20048;-48
2021/09/08 06:43:55;;;;;;;959.63;879.72;;;;;;;14.74;59.80;94237.00;5069694;28;20043;-49
2021/09/08 06:46:20;;;;;;;932.90;856.92;;;;;;;14.68;59.37;94235.69;5070046;28;20055;-46
2021/09/08 06:48:46;;;;;;;1006.63;919.72;;;;;;;14.72;60.17;94230.50;5069719;28;20040;-48
2021/09/08 06:51:11;;;;;;;946.60;868.05;;;;;;;14.91;59.95;94237.16;5070063;28;20032;-47
2021/09/08 06:53:37;;;;;;;941.08;866.50;;;;;;;14.92;59.66;94232.34;5077604;28;20020;-46
2021/09/08 06:56:04;;;;;;;1022.05;923.17;;;;;;;14.95;58.83;94231.22;5089800;28;20117;-46
2021/09/08 06:58:29;;;;;;;874.30;803.38;;;;;;;15.18;57.91;94232.63;5090130;28;20040;-46
2021/09/08 07:00:54;;;;;;;939.33;858.00;;;;;;;15.80;58.85;94231.16;5084961;28;20102;-46
2021/09/08 07:03:20;;;;;;;953.42;855.75;;;;;;;16.03;54.96;94220.63;5069681;28;20547;-47
2021/09/08 07:05:46;;;;;;;910.10;831.55;;;;;;;16.23;54.77;94229.97;5069917;28;20024;-46
2021/09/08 07:08:14;;;;;;;969.45;878.67;;;;;;;16.43;53.90;94226.13;5069892;28;20024;-47
2021/09/08 07:10:40;;;;;;;1028.63;926.93;;;;;;;17.80;52.10;94241.00;5069883;28;20033;-49
2021/09/08 07:13:05;;;;;;;1165.72;994.47;;;;;;;18.86;48.18;94236.72;5069862;28;20518;-49
2021/09/08 07:15:31;;;;;;;1205.32;999.90;;;;;;;19.30;45.73;94228.09;5069569;28;20541;-47
2021/09/08 07:17:56;;;;;;;1399.18;999.90;;;;;;;19.45;45.79;94242.59;5069494;28;20029;-47
2021/09/08 07:20:23;;;;;;;1352.70;999.90;;;;;;;19.80;45.48;94237.44;5068568;28;20024;-49
2021/09/08 07:22:49;;;;;;;1209.85;999.90;;;;;;;19.16;45.81;94244.59;5067618;28;20048;-49
2021/09/08 07:25:14;;;;;;;1176.28;999.90;;;;;;;18.50;47.64;94242.31;5067167;28;20074;-50
2021/09/08 07:27:40;;;;;;;1156.72;999.90;;;;;;;18.34;48.45;94250.19;5081571;28;20081;-49
2021/09/08 07:30:05;;;;;;;1111.68;997.35;;;;;;;18.82;47.53;94253.91;5087463;28;20150;-49
2021/09/08 07:32:31;;;;;;;1133.40;999.90;;;;;;;18.44;48.49;94258.59;5087275;28;20508;-47
2021/09/08 07:34:58;;;;;;;1131.68;999.90;;;;;;;18.46;47.89;94255.97;5089249;28;20024;-47
2021/09/08 07:37:25;;;;;;;1128.25;999.90;;;;;;;19.18;46.53;94252.41;5090185;28;20028;-48
2021/09/08 07:39:50;;;;;;;1170.53;999.90;;;;;;;19.70;44.96;94250.72;5091157;28;20024;-49
2021/09/08 07:42:16;;;;;;;1147.43;998.90;;;;;;;20.84;42.04;94252.56;5091009;28;20491;-48
2021/09/08 07:44:43;;;;;;;1414.13;999.90;;;;;;;21.54;42.42;94251.00;5090975;28;20053;-47
2021/09/08 07:47:09;;;;;;;1249.78;999.90;;;;;;;22.17;40.31;94250.22;5091213;28;20107;-48
2021/09/08 07:49:35;;;;;;;1309.25;999.90;;;;;;;23.46;37.44;94252.56;5090963;28;20034;-48
2021/09/08 07:52:01;;;;;;;1104.60;998.70;;;;;;;22.60;38.66;94254.41;5090501;28;20043;-49
2021/09/08 07:54:27;;;;;;;1064.30;959.20;;;;;;;22.09;38.49;94249.69;5089890;28;20063;-49
2021/09/08 07:56:53;;;;;;;1142.35;999.90;;;;;;;22.15;39.04;94252.91;5087844;28;20024;-50
2021/09/08 07:59:18;;;;;;;1132.70;999.90;;;;;;;23.17;37.49;94246.59;5070034;28;20103;-49
2021/09/08 08:01:44;;;;;;;1143.00;999.90;;;;;;;24.12;35.85;94238.06;5076138;28;20073;-49
2021/09/08 08:04:10;;;;;;;1118.97;999.90;;;;;;;23.31;35.64;94250.22;5089215;28;20024;-49
2021/09/08 08:06:37;;;;;;;1126.32;999.90;;;;;;;23.09;36.57;94246.09;5088720;28;20039;-49
2021/09/08 08:09:03;;;;;;;1108.97;998.95;;;;;;;23.80;35.36;94251.75;5090262;28;20023;-46
2021/09/08 08:11:28;;;;;;;1137.45;999.90;;;;;;;24.51;36.02;94236.75;5090513;28;20070;-47
2021/09/08 08:13:54;;;;;;;1150.90;999.90;;;;;;;25.68;33.07;94233.75;5090310;28;20120;-47
2021/09/08 08:16:19;;;;;;;1166.30;999.90;;;;;;;27.59;28.86;94237.16;5089950;28;20027;-45
2021/09/08 08:18:45;;;;;;;1175.70;999.90;;;;;;;28.08;27.79;94237.84;5090230;28;20024;-46
2021/09/08 08:21:10;;;;;;;1165.78;999.90;;;;;;;29.36;26.71;94241.47;5089694;28;20035;-47
2021/09/08 08:23:36;;;;;;;1144.90;999.90;;;;;;;30.40;25.04;94238.72;5090146;28;20030;-47
2021/09/08 08:26:02;;;;;;;1109.75;998.90;;;;;;;31.56;22.65;94245.81;5090016;28;20047;-47
2021/09/08 08:28:27;;;;;;;1065.55;971.75;;;;;;;31.83;21.42;94242.31;5089760;28;20024;-48
2021/09/08 08:30:54;;;;;;;1084.20;984.85;;;;;;;31.70;21.68;94243.38;5090105;28;20406;-47
2021/09/08 08:33:19;;;;;;;1016.83;930.50;;;;;;;31.98;21.03;94235.59;5089870;28;20112;-45
2021/09/08 08:35:45;;;;;;;1054.65;968.50;;;;;;;32.20;21.04;94232.59;5088855;28;20024;-47
2021/09/08 08:38:10;;;;;;;976.30;899.40;;;;;;;31.07;20.04;94247.25;5105888;28;20089;-45
2021/09/08 08:40:36;;;;;;;1034.57;948.17;;;;;;;27.56;24.84;94238.44;5089634;28;20032;-48
2021/09/08 08:43:02;;;;;;;984.03;906.67;;;;;;;28.81;24.19;94232.97;5089574;28;20509;-45
2021/09/08 08:45:29;;;;;;;926.65;860.30;;;;;;;29.34;23.32;94241.41;5088657;28;20032;-46
2021/09/08 08:47:54;;;;;;;879.13;816.58;;;;;;;29.45;22.36;94240.38;5089565;28;20036;-48
2021/09/08 08:50:23;;;;;;;905.95;840.10;;;;;;;29.96;22.05;94235.09;5089592;28;20016;-48
2021/09/08 08:52:49;;;;;;;913.38;846.92;;;;;;;30.52;21.66;94241.22;5089280;28;20031;-51
2021/09/08 08:55:14;;;;;;;990.85;914.67;;;;;;;30.54;22.84;94232.72;5069221;28;20442;-49
2021/09/08 08:57:40;;;;;;;974.28;898.40;;;;;;;31.16;21.61;94237.56;5069090;28;20024;-49
2021/09/08 09:00:07;;;;;;;842.17;779.58;;;;;;;30.32;20.36;94232.03;5069648;28;20021;-47
2021/09/08 09:02:33;;;;;;;946.40;873.95;;;;;;;30.87;22.44;94235.22;5069288;28;20027;-48
2021/09/08 09:05:00;;;;;;;992.20;915.67;;;;;;;30.57;22.35;94237.13;5069696;28;20033;-48
2021/09/08 09:07:30;;;;;;;894.58;807.47;;;;;;;28.32;23.03;94232.41;5068994;28;20056;-46
2021/09/08 09:10:00;;;;;;;949.78;877.78;;;;;;;28.12;24.48;94234.44;5068802;28;20025;-48
2021/09/08 09:12:28;;;;;;;942.75;870.33;;;;;;;28.44;24.72;94233.63;5068798;28;20066;-47
2021/09/08 09:14:58;;;;;;;931.78;863.55;;;;;;;28.42;24.33;94218.63;5069127;28;20036;-49
2021/09/08 09:17:28;;;;;;;922.47;854.25;;;;;;;28.22;24.79;94226.34;5069036;28;20616;-49
2021/09/08 09:19:54;;;;;;;863.10;802.70;;;;;;;28.06;24.66;94231.34;5067631;28;20051;-48
2021/09/08 09:22:19;;;;;;;906.92;839.78;;;;;;;28.60;24.89;94230.00;5068440;28;20017;-51
2021/09/08 09:24:51;;;;;;;918.92;850.58;;;;;;;28.62;24.79;94222.28;5068603;28;20517;-52
2021/09/08 09:27:17;;;;;;;933.60;862.78;;;;;;;28.56;24.84;94224.13;5080223;28;20028;-47
2021/09/08 09:29:43;;;;;;;989.88;910.03;;;;;;;28.57;25.80;94229.19;5089171;28;20020;-49
2021/09/08 09:32:11;;;;;;;939.60;868.67;;;;;;;28.11;24.97;94228.00;5088759;28;20504;-48
2021/09/08 09:34:39;;;;;;;950.85;877.55;;;;;;;27.86;25.14;94227.63;5088490;28;20111;-49
2021/09/08 09:37:05;;;;;;;971.47;897.55;;;;;;;28.27;25.56;94222.28;5087477;28;20513;-49
2021/09/08 09:39:32;;;;;;;882.78;821.50;;;;;;;28.46;24.32;94205.31;5088860;28;20032;-50
2021/09/08 09:41:59;;;;;;;916.80;849.80;;;;;;;27.89;24.33;94215.72;5088442;28;20030;-53
2021/09/08 09:44:30;;;;;;;991.95;913.08;;;;;;;27.67;26.21;94217.63;5104369;28;20036;-52
2021/09/08 09:46:55;;;;;;;978.97;898.90;;;;;;;27.45;26.22;94217.41;5103649;28;20024;-50
2021/09/08 09:49:21;;;;;;;973.75;892.13;;;;;;;27.59;27.87;94215.16;5086114;28;20043;-50
2021/09/08 09:51:46;;;;;;;997.53;917.38;;;;;;;27.55;27.80;94217.09;5068428;28;20039;-53
2021/09/08 09:54:15;;;;;;;991.50;914.67;;;;;;;26.54;28.51;94208.94;5077836;28;20024;-50
2021/09/08 09:56:40;;;;;;;1009.85;925.75;;;;;;;26.31;29.70;94210.03;5068354;28;20090;-49
2021/09/08 09:59:06;;;;;;;1031.50;945.55;;;;;;;26.05;30.60;94211.56;5068405;28;20044;-51
2021/09/08 10:01:31;;;;;;;978.13;898.22;;;;;;;25.21;31.07;94208.72;5083899;28;20181;-48
2021/09/08 10:03:57;;;;;;;833.65;769.67;;;;;;;23.04;33.75;94222.56;5067898;28;20098;-49
2021/09/08 10:06:23;;;;;;;941.22;867.90;;;;;;;23.48;34.36;94216.03;5083787;28;20031;-52
2021/09/08 10:08:50;;;;;;;796.53;736.75;;;;;;;23.60;33.79;94194.22;5072522;28;20321;-47
2021/09/08 10:11:23;;;;;;;689.67;639.40;;;;;;;22.35;36.61;94216.88;5073253;28;20518;-46
2021/09/08 10:13:52;;;;;;;886.95;824.35;;;;;;;22.19;35.98;94196.16;5074743;28;20024;-49
2021/09/08 10:16:18;;;;;;;898.88;834.35;;;;;;;23.38;33.88;94214.72;5075890;28;20519;-55
2021/09/08 10:18:47;;;;;;;924.03;853.10;;;;;;;23.90;34.29;94190.28;5076570;28;20065;-56
2021/09/08 10:21:14;;;;;;;973.42;894.63;;;;;;;23.94;34.01;94207.44;5076281;28;20399;-54
2021/09/08 10:23:44;;;;;;;983.05;904.72;;;;;;;24.01;32.56;94205.69;5076930;28;20057;-52
2021/09/08 10:26:17;;;;;;;1021.22;932.70;;;;;;;23.96;33.25;94216.00;5077570;28;20470;-56
2021/09/08 10:28:44;;;;;;;966.80;888.47;;;;;;;23.76;31.75;94216.94;5076476;28;20112;-56
2021/09/08 10:31:11;;;;;;;1020.75;932.95;;;;;;;23.68;33.21;94208.03;5071077;28;20039;-55
2021/09/08 10:33:38;;;;;;;1010.90;930.05;;;;;;;23.70;32.29;94205.31;5066983;28;20040;-54
2021/09/08 10:36:04;;;;;;;1014.22;927.97;;;;;;;23.88;33.75;94207.09;5082029;28;20027;-54
2021/09/08 10:38:31;;;;;;;1010.97;924.65;;;;;;;23.84;33.43;94203.31;5074915;28;20012;-54
2021/09/08 10:40:57;;;;;;;1049.18;955.75;;;;;;;23.75;33.20;94193.66;5077412;28;20093;-52
2021/09/08 10:43:31;;;;;;;993.80;909.03;;;;;;;23.54;33.42;94202.28;5079242;28;20493;-54
2021/09/08 10:45:56;;;;;;;1037.13;946.33;;;;;;;23.66;34.01;94197.38;5075779;28;20032;-54
2021/09/08 10:48:48;;;;;;;1008.95;922.60;;;;;;;23.32;33.55;94203.81;5077105;28;20524;-54
2021/09/08 10:51:17;;;;;;;1019.38;936.22;;;;;;;23.29;33.23;94197.31;5076033;28;20031;-51